aviador You're here:

KHBI Decoded Metar

ASHEBORO MUNI in NC, USA
Report Time2017-10-24 11:15:00
UTC Time2017-10-24 11:24:11
Flight Rules lifr LIFR
WindCalm
Visibility4828 m
Phenomena:Mist
Clouds:Overcast 002 Hf
Ceiling200 ft
Temp13°C (ISA -1)
Dew Point13°C (100% RH)
QNH1011 hPa
Density Alt866 ft
Elevation673 ft
Report Wrong Elevation
Raw Report
KHBI 241115Z AUTO 00000KT 3SM BR OVC002 13/13 A2985 RMK AO2
T01300130=

Extra information for KHBI:More info

Metar Taf Metar & Taf Last 4 Metars F.Rules Stats Wind Profile Meteogram Temp Stats Airport Information Weather charts Add Link Nearby VenuesMetar ALERT Operation Metar Decoded Social comments

AIRNAV info for KHBI